createdAt,value
2018-09-21T00:00:31.101Z,68
2018-09-21T00:01:33.142Z,68
2018-09-21T00:02:35.185Z,68
2018-09-21T00:03:37.233Z,68
2018-09-21T00:04:39.256Z,68
2018-09-21T00:05:41.300Z,68
2018-09-21T00:06:43.341Z,68
2018-09-21T00:07:45.373Z,68
2018-09-21T00:08:47.420Z,68
2018-09-21T00:09:49.736Z,68
2018-09-21T00:10:52.068Z,68
2018-09-21T00:11:54.113Z,68
2018-09-21T00:12:56.161Z,69
2018-09-21T00:13:58.479Z,69
2018-09-21T00:15:00.900Z,69
2018-09-21T00:16:03.223Z,69
2018-09-21T00:17:05.246Z,69
2018-09-21T00:18:07.284Z,69
2018-09-21T00:19:09.624Z,69
2018-09-21T00:20:11.656Z,69
2018-09-21T00:21:13.976Z,70
2018-09-21T00:22:16.709Z,70
2018-09-21T00:23:19.059Z,70
2018-09-21T00:24:21.100Z,70
2018-09-21T00:25:23.524Z,70
2018-09-21T00:26:25.938Z,70
2018-09-21T00:27:27.972Z,70
2018-09-21T00:28:30.021Z,70
2018-09-21T00:29:32.434Z,70
2018-09-21T00:30:34.477Z,70
2018-09-21T00:31:36.521Z,70
2018-09-21T00:32:38.837Z,70
2018-09-21T00:33:40.886Z,70
2018-09-21T00:34:42.916Z,70
2018-09-21T00:35:44.958Z,70
2018-09-21T00:36:46.984Z,70
2018-09-21T00:37:49.032Z,70
2018-09-21T00:38:51.062Z,70
2018-09-21T00:39:53.091Z,70
2018-09-21T00:40:55.138Z,70
2018-09-21T00:41:57.455Z,70
2018-09-21T00:42:59.484Z,70
2018-09-21T00:44:01.519Z,70
2018-09-21T00:45:03.936Z,70
2018-09-21T00:46:05.979Z,70
2018-09-21T00:47:08.034Z,70
2018-09-21T00:48:10.065Z,70
2018-09-21T00:49:12.113Z,70
2018-09-21T00:50:14.142Z,70
2018-09-21T00:51:16.180Z,70
2018-09-21T00:52:18.219Z,70
2018-09-21T00:53:20.248Z,70
2018-09-21T00:54:22.571Z,70
2018-09-21T00:55:24.612Z,70
2018-09-21T00:56:26.645Z,70
2018-09-21T00:57:28.979Z,70
2018-09-21T00:58:31.310Z,70
2018-09-21T00:59:33.339Z,70
2018-09-21T01:00:35.371Z,70
2018-09-21T01:01:37.801Z,70
2018-09-21T01:02:39.826Z,70
2018-09-21T01:03:41.862Z,69
2018-09-21T01:04:43.900Z,69
2018-09-21T01:05:45.928Z,69
2018-09-21T01:06:47.989Z,69
2018-09-21T01:07:50.022Z,69
2018-09-21T01:08:52.058Z,69
2018-09-21T01:09:54.084Z,69
2018-09-21T01:10:56.132Z,69
2018-09-21T01:11:58.168Z,69
2018-09-21T01:13:00.196Z,69
2018-09-21T01:14:02.915Z,69
2018-09-21T01:15:04.942Z,69
2018-09-21T01:16:06.979Z,69
2018-09-21T01:17:09.714Z,69
2018-09-21T01:18:12.034Z,69
2018-09-21T01:19:14.062Z,69
2018-09-21T01:20:16.387Z,69
2018-09-21T01:21:18.709Z,69
2018-09-21T01:22:20.748Z,69
2018-09-21T01:23:22.793Z,69
2018-09-21T01:24:24.841Z,69
2018-09-21T01:25:27.166Z,69
2018-09-21T01:26:29.470Z,69
2018-09-21T01:27:31.899Z,69
2018-09-21T01:28:33.947Z,69
2018-09-21T01:29:35.982Z,69
2018-09-21T01:30:38.029Z,69
2018-09-21T01:31:40.064Z,69
2018-09-21T01:32:42.183Z,69
2018-09-21T01:33:44.170Z,69
2018-09-21T01:34:46.214Z,69
2018-09-21T01:35:48.527Z,69
2018-09-21T01:36:50.560Z,69
2018-09-21T01:37:52.982Z,68
2018-09-21T01:38:55.012Z,68
2018-09-21T01:39:57.057Z,68
2018-09-21T01:40:59.088Z,68
2018-09-21T01:42:01.127Z,68
2018-09-21T01:43:03.155Z,68
2018-09-21T01:44:05.204Z,68
2018-09-21T01:45:07.231Z,68
2018-09-21T01:46:09.268Z,67
2018-09-21T01:47:11.310Z,68
2018-09-21T01:48:13.920Z,67
2018-09-21T01:49:15.960Z,68
2018-09-21T01:50:18.025Z,67
2018-09-21T01:51:20.045Z,67
2018-09-21T01:52:22.660Z,67
2018-09-21T01:53:24.704Z,67
2018-09-21T01:54:26.744Z,67
2018-09-21T01:55:28.786Z,67
2018-09-21T01:56:30.832Z,67
2018-09-21T01:57:33.254Z,67
2018-09-21T01:58:35.296Z,67
2018-09-21T01:59:37.318Z,67
2018-09-21T02:00:39.361Z,67
2018-09-21T02:01:41.402Z,67
2018-09-21T02:02:43.438Z,67
2018-09-21T02:03:45.484Z,66
2018-09-21T02:04:47.521Z,67
2018-09-21T02:05:49.549Z,66
2018-09-21T02:06:51.579Z,66
2018-09-21T02:07:53.623Z,66
2018-09-21T02:08:55.945Z,66
2018-09-21T02:09:57.986Z,66
2018-09-21T02:11:00.042Z,66
2018-09-21T02:12:02.073Z,66
2018-09-21T02:13:04.121Z,66
2018-09-21T02:14:06.148Z,66
2018-09-21T02:15:08.480Z,66
2018-09-21T02:16:10.554Z,66
2018-09-21T02:17:12.602Z,66
2018-09-21T02:18:14.632Z,66
2018-09-21T02:19:16.661Z,66
2018-09-21T02:20:18.708Z,66
2018-09-21T02:21:20.733Z,66
2018-09-21T02:22:22.778Z,66
2018-09-21T02:23:25.122Z,66
2018-09-21T02:24:27.159Z,66
2018-09-21T02:25:29.179Z,66
2018-09-21T02:26:31.217Z,66
2018-09-21T02:27:33.263Z,66
2018-09-21T02:28:35.292Z,65
2018-09-21T02:29:37.335Z,65
2018-09-21T02:30:39.361Z,65
2018-09-21T02:31:41.984Z,65
2018-09-21T02:32:44.030Z,65
2018-09-21T02:33:46.648Z,65
2018-09-21T02:34:49.087Z,65
2018-09-21T02:35:51.715Z,65
2018-09-21T02:36:54.030Z,65
2018-09-21T02:37:56.355Z,65
2018-09-21T02:38:58.401Z,65
2018-09-21T02:40:00.736Z,65
2018-09-21T02:41:03.714Z,65
2018-09-21T02:42:06.467Z,65
2018-09-21T02:43:08.499Z,65
2018-09-21T02:44:10.538Z,65
2018-09-21T02:45:12.577Z,65
2018-09-21T02:46:14.606Z,65
2018-09-21T02:47:16.647Z,65
2018-09-21T02:48:19.059Z,65
2018-09-21T02:49:21.119Z,65
2018-09-21T02:50:23.138Z,65
2018-09-21T02:51:25.186Z,65
2018-09-21T02:52:27.516Z,66
2018-09-21T02:53:29.836Z,65
2018-09-21T02:54:31.880Z,65
2018-09-21T02:55:34.301Z,65
2018-09-21T02:56:36.337Z,66
2018-09-21T02:57:38.753Z,66
2018-09-21T02:58:41.086Z,66
2018-09-21T02:59:43.421Z,66
2018-09-21T03:00:45.977Z,66
2018-09-21T03:01:48.341Z,66
2018-09-21T03:02:50.359Z,66
2018-09-21T03:03:52.699Z,66
2018-09-21T03:04:54.745Z,66
2018-09-21T03:05:56.768Z,66
2018-09-21T03:06:58.813Z,66
2018-09-21T03:08:00.875Z,67
2018-09-21T03:09:03.186Z,67
2018-09-21T03:10:05.530Z,67
2018-09-21T03:11:07.562Z,67
2018-09-21T03:12:09.905Z,67
2018-09-21T03:13:11.970Z,67
2018-09-21T03:14:14.272Z,67
2018-09-21T03:15:16.327Z,67
2018-09-21T03:16:19.048Z,67
2018-09-21T03:17:21.379Z,67
2018-09-21T03:18:23.419Z,68
2018-09-21T03:19:25.443Z,68
2018-09-21T03:20:27.794Z,68
2018-09-21T03:21:29.831Z,68
2018-09-21T03:22:32.164Z,68
2018-09-21T03:23:34.492Z,68
2018-09-21T03:24:36.545Z,68
2018-09-21T03:25:39.153Z,68
2018-09-21T03:26:41.184Z,68
2018-09-21T03:27:43.230Z,68
2018-09-21T03:28:45.543Z,68
2018-09-21T03:29:48.561Z,68
2018-09-21T03:30:51.280Z,68
2018-09-21T03:31:54.286Z,68
2018-09-21T03:32:56.607Z,68
2018-09-21T03:33:58.639Z,68
2018-09-21T03:35:00.689Z,68
2018-09-21T03:36:03.293Z,68
2018-09-21T03:37:05.335Z,68
2018-09-21T03:38:07.380Z,68
2018-09-21T03:39:09.402Z,68
2018-09-21T03:40:11.440Z,68
2018-09-21T03:41:13.475Z,68
2018-09-21T03:42:15.507Z,68
2018-09-21T03:43:17.557Z,68
2018-09-21T03:44:19.594Z,68
2018-09-21T03:45:21.623Z,68
2018-09-21T03:46:23.651Z,68
2018-09-21T03:47:25.696Z,69
2018-09-21T03:48:28.115Z,68
2018-09-21T03:49:30.154Z,68
2018-09-21T03:50:32.192Z,68
2018-09-21T03:51:34.224Z,68
2018-09-21T03:52:36.280Z,68
2018-09-21T03:53:38.318Z,68
2018-09-21T03:54:40.353Z,68
2018-09-21T03:55:42.376Z,68
2018-09-21T03:56:44.435Z,68
2018-09-21T03:57:46.468Z,68
2018-09-21T03:58:48.788Z,68
2018-09-21T03:59:51.111Z,68
2018-09-21T04:00:53.139Z,68
2018-09-21T04:01:55.450Z,68
2018-09-21T04:02:57.484Z,68
2018-09-21T04:03:59.523Z,68
2018-09-21T04:05:01.546Z,68
2018-09-21T04:06:03.894Z,68
2018-09-21T04:07:05.925Z,67
2018-09-21T04:08:08.238Z,68
2018-09-21T04:09:10.284Z,67
2018-09-21T04:10:12.315Z,67
2018-09-21T04:11:14.357Z,67
2018-09-21T04:12:16.787Z,67
2018-09-21T04:13:19.147Z,67
2018-09-21T04:14:21.173Z,67
2018-09-21T04:15:23.595Z,67
2018-09-21T04:16:25.631Z,67
2018-09-21T04:17:27.993Z,67
2018-09-21T04:18:30.033Z,67
2018-09-21T04:19:32.757Z,67
2018-09-21T04:20:34.779Z,66
2018-09-21T04:21:37.110Z,67
2018-09-21T04:22:39.426Z,67
2018-09-21T04:23:41.460Z,67
2018-09-21T04:24:43.505Z,66
2018-09-21T04:25:45.876Z,66
2018-09-21T04:26:47.913Z,66
2018-09-21T04:27:50.237Z,66
2018-09-21T04:28:52.284Z,66
2018-09-21T04:29:54.316Z,66
2018-09-21T04:30:56.346Z,66
2018-09-21T04:31:58.374Z,66
2018-09-21T04:33:00.430Z,66
2018-09-21T04:34:02.736Z,66
2018-09-21T04:35:04.777Z,66
2018-09-21T04:36:07.956Z,66
2018-09-21T04:37:09.954Z,67
2018-09-21T04:38:12.649Z,67
2018-09-21T04:39:14.694Z,67
2018-09-21T04:40:17.306Z,67
2018-09-21T04:41:19.336Z,67
2018-09-21T04:42:21.380Z,67
2018-09-21T04:43:23.688Z,67
2018-09-21T04:44:25.723Z,67
2018-09-21T04:45:27.759Z,67
2018-09-21T04:46:30.179Z,67
2018-09-21T04:47:32.209Z,67
2018-09-21T04:48:34.246Z,67
2018-09-21T04:49:36.276Z,67
2018-09-21T04:50:38.327Z,67
2018-09-21T04:51:40.357Z,67
2018-09-21T04:52:43.075Z,67
2018-09-21T04:53:45.095Z,67
2018-09-21T04:54:47.468Z,66
2018-09-21T04:55:49.497Z,66
2018-09-21T04:56:51.529Z,66
2018-09-21T04:57:53.862Z,66
2018-09-21T04:58:55.886Z,66
2018-09-21T04:59:57.929Z,67
2018-09-21T05:00:59.960Z,67
2018-09-21T05:02:02.008Z,67
2018-09-21T05:03:04.035Z,67
2018-09-21T05:04:06.075Z,67
2018-09-21T05:05:08.113Z,67
2018-09-21T05:06:10.143Z,67
2018-09-21T05:07:12.496Z,67
2018-09-21T05:08:14.528Z,67
2018-09-21T05:09:16.556Z,67
2018-09-21T05:10:18.590Z,67
2018-09-21T05:11:20.921Z,67
2018-09-21T05:12:22.954Z,67
2018-09-21T05:13:24.987Z,67
2018-09-21T05:14:27.031Z,67
2018-09-21T05:15:29.057Z,67
2018-09-21T05:16:31.095Z,67
2018-09-21T05:17:33.135Z,67
2018-09-21T05:18:35.158Z,67
2018-09-21T05:19:37.198Z,67
2018-09-21T05:20:39.236Z,67
2018-09-21T05:21:41.269Z,67
2018-09-21T05:22:43.307Z,68
2018-09-21T05:23:45.343Z,68
2018-09-21T05:24:47.372Z,68
2018-09-21T05:25:49.403Z,68
2018-09-21T05:26:51.451Z,68
2018-09-21T05:27:53.480Z,68
2018-09-21T05:28:56.186Z,68
2018-09-21T05:29:58.222Z,68
2018-09-21T05:31:00.556Z,68
2018-09-21T05:32:02.984Z,68
2018-09-21T05:33:05.401Z,68
2018-09-21T05:34:07.500Z,68
2018-09-21T05:35:09.642Z,68
2018-09-21T05:36:11.507Z,68
2018-09-21T05:37:13.539Z,68
2018-09-21T05:38:15.866Z,68
2018-09-21T05:39:17.904Z,68
2018-09-21T05:40:19.939Z,68
2018-09-21T05:41:22.269Z,68
2018-09-21T05:42:24.309Z,68
2018-09-21T05:43:26.632Z,68
2018-09-21T05:44:28.944Z,68
2018-09-21T05:45:30.987Z,68
2018-09-21T05:46:33.314Z,68
2018-09-21T05:47:35.351Z,68
2018-09-21T05:48:37.374Z,68
2018-09-21T05:49:39.413Z,68
2018-09-21T05:50:41.454Z,68
2018-09-21T05:51:43.480Z,67
2018-09-21T05:52:45.802Z,67
2018-09-21T05:53:47.843Z,67
2018-09-21T05:54:49.881Z,67
2018-09-21T05:55:52.311Z,67
2018-09-21T05:56:54.340Z,67
2018-09-21T05:57:56.656Z,67
2018-09-21T05:58:58.686Z,67
2018-09-21T06:00:00.735Z,67
2018-09-21T06:01:03.153Z,67
2018-09-21T06:02:05.234Z,67
2018-09-21T06:03:07.230Z,67
2018-09-21T06:04:09.263Z,67
2018-09-21T06:05:11.597Z,67
2018-09-21T06:06:13.628Z,67
2018-09-21T06:07:16.058Z,67
2018-09-21T06:08:18.087Z,67
2018-09-21T06:09:20.432Z,67
2018-09-21T06:10:22.462Z,68
2018-09-21T06:11:24.490Z,68
2018-09-21T06:12:26.537Z,68
2018-09-21T06:13:28.894Z,68
2018-09-21T06:14:30.911Z,68
2018-09-21T06:15:32.951Z,68
2018-09-21T06:16:34.991Z,68
2018-09-21T06:17:37.018Z,68
2018-09-21T06:18:39.058Z,68
2018-09-21T06:19:41.090Z,68
2018-09-21T06:20:43.406Z,68
2018-09-21T06:21:45.448Z,68
2018-09-21T06:22:47.483Z,68
2018-09-21T06:23:49.520Z,68
2018-09-21T06:24:51.546Z,67
2018-09-21T06:25:53.871Z,67
2018-09-21T06:26:55.918Z,67
2018-09-21T06:27:58.235Z,67
2018-09-21T06:29:00.274Z,67
2018-09-21T06:30:02.593Z,67
2018-09-21T06:31:04.625Z,67
2018-09-21T06:32:06.656Z,67
2018-09-21T06:33:08.710Z,67
2018-09-21T06:34:10.737Z,67
2018-09-21T06:35:12.775Z,67
2018-09-21T06:36:15.205Z,66
2018-09-21T06:37:17.236Z,66
2018-09-21T06:38:19.283Z,66
2018-09-21T06:39:21.326Z,66
2018-09-21T06:40:23.362Z,65
2018-09-21T06:41:25.679Z,65
2018-09-21T06:42:27.742Z,65
2018-09-21T06:43:30.399Z,65
2018-09-21T06:44:32.435Z,64
2018-09-21T06:45:34.476Z,64
2018-09-21T06:46:36.506Z,64
2018-09-21T06:47:38.548Z,64
2018-09-21T06:48:40.588Z,63
2018-09-21T06:49:42.963Z,63
2018-09-21T06:50:44.945Z,63
2018-09-21T06:51:47.375Z,63
2018-09-21T06:52:49.721Z,62
2018-09-21T06:53:52.041Z,62
2018-09-21T06:54:54.088Z,62
2018-09-21T06:55:56.113Z,62
2018-09-21T06:56:58.146Z,61
2018-09-21T06:58:00.195Z,61
2018-09-21T06:59:02.518Z,61
2018-09-21T07:00:04.545Z,60
2018-09-21T07:01:06.864Z,60
2018-09-21T07:02:08.907Z,60
2018-09-21T07:03:11.646Z,60
2018-09-21T07:04:13.672Z,60
2018-09-21T07:05:15.976Z,59
2018-09-21T07:06:18.026Z,59
2018-09-21T07:07:20.059Z,59
2018-09-21T07:08:22.508Z,59
2018-09-21T07:09:24.845Z,59
2018-09-21T07:10:26.882Z,58
2018-09-21T07:11:28.928Z,58
2018-09-21T07:12:30.967Z,58
2018-09-21T07:13:33.016Z,58
2018-09-21T07:14:35.325Z,58
2018-09-21T07:15:37.374Z,58
2018-09-21T07:16:39.408Z,58
2018-09-21T07:17:41.445Z,57
2018-09-21T07:18:43.487Z,57
2018-09-21T07:19:45.517Z,57
2018-09-21T07:20:47.562Z,57
2018-09-21T07:21:49.603Z,57
2018-09-21T07:22:51.649Z,57
2018-09-21T07:23:53.681Z,57
2018-09-21T07:24:55.722Z,57
2018-09-21T07:25:58.147Z,56
2018-09-21T07:27:00.183Z,56
2018-09-21T07:28:02.540Z,56
2018-09-21T07:29:04.573Z,56
2018-09-21T07:30:07.381Z,56
2018-09-21T07:31:09.470Z,56
2018-09-21T07:32:11.464Z,56
2018-09-21T07:33:13.503Z,56
2018-09-21T07:34:15.543Z,55
2018-09-21T07:35:17.582Z,55
2018-09-21T07:36:19.629Z,55
2018-09-21T07:37:22.113Z,55
2018-09-21T07:38:24.143Z,54
2018-09-21T07:39:26.170Z,54
2018-09-21T07:40:28.222Z,54
2018-09-21T07:41:30.547Z,54
2018-09-21T07:42:32.586Z,53
2018-09-21T07:43:34.637Z,53
2018-09-21T07:44:36.742Z,53
2018-09-21T07:45:38.726Z,52
2018-09-21T07:46:40.768Z,52
2018-09-21T07:47:42.821Z,52
2018-09-21T07:48:44.908Z,51
2018-09-21T07:49:46.902Z,51
2018-09-21T07:50:48.948Z,51
2018-09-21T07:51:50.997Z,51
2018-09-21T07:52:53.344Z,51
2018-09-21T07:53:55.708Z,51
2018-09-21T07:54:58.119Z,51
2018-09-21T07:56:00.548Z,51
2018-09-21T07:57:02.602Z,50
2018-09-21T07:58:04.640Z,50
2018-09-21T07:59:06.682Z,50
2018-09-21T08:00:08.739Z,50
2018-09-21T08:01:11.085Z,50
2018-09-21T08:02:13.135Z,50
2018-09-21T08:03:15.180Z,49
2018-09-21T08:04:17.214Z,49
2018-09-21T08:05:19.263Z,49
2018-09-21T08:06:21.307Z,48
2018-09-21T08:07:23.803Z,48
2018-09-21T08:08:25.780Z,47
2018-09-21T08:09:27.822Z,47
2018-09-21T08:10:30.148Z,46
2018-09-21T08:11:32.476Z,46
2018-09-21T08:12:34.531Z,46
2018-09-21T08:13:36.950Z,46
2018-09-21T08:14:39.300Z,45
2018-09-21T08:15:41.349Z,45
2018-09-21T08:16:43.397Z,45
2018-09-21T08:17:45.440Z,45
2018-09-21T08:18:47.500Z,45
2018-09-21T08:19:49.918Z,45
2018-09-21T08:20:52.544Z,45
2018-09-21T08:21:54.579Z,45
2018-09-21T08:22:57.012Z,45
2018-09-21T08:23:59.065Z,45
2018-09-21T08:25:01.117Z,45
2018-09-21T08:26:03.160Z,44
2018-09-21T08:27:05.524Z,44
2018-09-21T08:28:07.580Z,44
2018-09-21T08:29:10.220Z,44
2018-09-21T08:30:12.297Z,44
2018-09-21T08:31:14.346Z,44
2018-09-21T08:32:16.705Z,44
2018-09-21T08:33:18.791Z,44
2018-09-21T08:34:21.187Z,44
2018-09-21T08:35:23.243Z,43
2018-09-21T08:36:25.291Z,43
2018-09-21T08:37:27.332Z,42
2018-09-21T08:38:29.382Z,42
2018-09-21T08:39:31.435Z,42
2018-09-21T08:40:33.494Z,42
2018-09-21T08:41:36.179Z,42
2018-09-21T08:42:38.220Z,43
2018-09-21T08:43:40.655Z,43
2018-09-21T08:44:42.988Z,43
2018-09-21T08:45:45.043Z,43
2018-09-21T08:46:47.395Z,42
2018-09-21T08:47:49.442Z,42
2018-09-21T08:48:51.501Z,42
2018-09-21T08:49:53.543Z,42
2018-09-21T08:50:55.598Z,42
2018-09-21T08:51:57.746Z,42
2018-09-21T08:53:00.188Z,42
2018-09-21T08:54:02.792Z,42
2018-09-21T08:55:04.944Z,43
2018-09-21T08:56:07.292Z,43
2018-09-21T08:57:09.750Z,43
2018-09-21T08:58:11.792Z,43
2018-09-21T08:59:13.844Z,43
2018-09-21T09:00:15.901Z,43
2018-09-21T09:01:17.942Z,43
2018-09-21T09:02:20.374Z,43
2018-09-21T09:03:22.513Z,43
2018-09-21T09:04:24.486Z,43
2018-09-21T09:05:26.915Z,43
2018-09-21T09:06:28.959Z,43
2018-09-21T09:07:31.387Z,43
2018-09-21T09:08:33.727Z,43
2018-09-21T09:09:35.779Z,43
2018-09-21T09:10:38.099Z,43
2018-09-21T09:11:40.154Z,43
2018-09-21T09:12:42.214Z,43
2018-09-21T09:13:44.564Z,43
2018-09-21T09:14:46.613Z,43
2018-09-21T09:15:48.659Z,43
2018-09-21T09:16:50.696Z,43
2018-09-21T09:17:52.735Z,43
2018-09-21T09:18:54.810Z,43
2018-09-21T09:19:57.127Z,44
2018-09-21T09:20:59.179Z,44
2018-09-21T09:22:01.556Z,43
2018-09-21T09:23:03.925Z,43
2018-09-21T09:24:06.233Z,43
2018-09-21T09:25:08.271Z,44
2018-09-21T09:26:10.340Z,43
2018-09-21T09:27:12.371Z,43
2018-09-21T09:28:14.723Z,44
2018-09-21T09:29:17.160Z,44
2018-09-21T09:30:19.479Z,43
2018-09-21T09:31:21.529Z,43
2018-09-21T09:32:23.578Z,43
2018-09-21T09:33:26.005Z,43
2018-09-21T09:34:28.044Z,43
2018-09-21T09:35:30.083Z,42
2018-09-21T09:36:32.140Z,42
2018-09-21T09:37:34.465Z,42
2018-09-21T09:38:36.512Z,43
2018-09-21T09:39:38.562Z,43
2018-09-21T09:40:40.595Z,43
2018-09-21T09:41:42.646Z,43
2018-09-21T09:42:44.728Z,42
2018-09-21T09:43:46.749Z,43
2018-09-21T09:44:48.826Z,42
2018-09-21T09:45:50.878Z,42
2018-09-21T09:46:53.309Z,42
2018-09-21T09:47:55.361Z,43
2018-09-21T09:48:57.462Z,43
2018-09-21T09:49:59.444Z,43
2018-09-21T09:51:01.478Z,43
2018-09-21T09:52:03.854Z,43
2018-09-21T09:53:05.884Z,42
2018-09-21T09:54:07.932Z,43
2018-09-21T09:55:09.978Z,43
2018-09-21T09:56:12.306Z,42
2018-09-21T09:57:14.360Z,43
2018-09-21T09:58:16.410Z,42
2018-09-21T09:59:18.457Z,42
2018-09-21T10:00:20.490Z,42
2018-09-21T10:01:22.836Z,42
2018-09-21T10:02:24.875Z,42
2018-09-21T10:03:27.309Z,42
2018-09-21T10:04:29.264Z,42
2018-09-21T10:05:31.295Z,41
2018-09-21T10:06:33.343Z,41
2018-09-21T10:07:35.392Z,41
2018-09-21T10:08:37.449Z,41
2018-09-21T10:09:39.482Z,41
2018-09-21T10:10:41.544Z,40
2018-09-21T10:11:43.591Z,40
2018-09-21T10:12:45.653Z,40
2018-09-21T10:13:47.704Z,40
2018-09-21T10:14:49.766Z,40
2018-09-21T10:15:51.813Z,40
2018-09-21T10:16:53.871Z,40
2018-09-21T10:17:55.907Z,40
2018-09-21T10:18:58.634Z,40
2018-09-21T10:20:00.689Z,40
2018-09-21T10:21:03.391Z,40
2018-09-21T10:22:05.743Z,40
2018-09-21T10:23:08.080Z,40
2018-09-21T10:24:10.579Z,40
2018-09-21T10:25:12.947Z,40
2018-09-21T10:26:15.002Z,40
2018-09-21T10:27:17.854Z,40
2018-09-21T10:28:19.808Z,40
2018-09-21T10:29:21.804Z,40
2018-09-21T10:30:24.125Z,41
2018-09-21T10:31:26.910Z,41
2018-09-21T10:32:29.333Z,41
2018-09-21T10:33:32.055Z,41
2018-09-21T10:34:33.952Z,41
2018-09-21T10:35:36.914Z,41
2018-09-21T10:36:39.281Z,41
2018-09-21T10:37:41.323Z,41
2018-09-21T10:38:43.794Z,41
2018-09-21T10:39:46.458Z,42
2018-09-21T10:40:48.798Z,42
2018-09-21T10:41:51.027Z,42
2018-09-21T10:42:53.123Z,42
2018-09-21T10:43:55.122Z,42
2018-09-21T10:44:57.508Z,42
2018-09-21T10:45:59.795Z,42
2018-09-21T10:47:02.209Z,42
2018-09-21T10:48:04.546Z,42
2018-09-21T10:49:06.590Z,42
2018-09-21T10:50:08.649Z,42
2018-09-21T10:51:10.686Z,42
2018-09-21T10:52:12.726Z,43
2018-09-21T10:53:14.771Z,43
2018-09-21T10:54:17.100Z,43
2018-09-21T10:55:19.149Z,43
2018-09-21T10:56:21.235Z,43
2018-09-21T10:57:23.287Z,43
2018-09-21T10:58:25.323Z,43
2018-09-21T10:59:27.985Z,43
2018-09-21T11:00:30.094Z,43
2018-09-21T11:01:32.536Z,43
2018-09-21T11:02:34.589Z,43
2018-09-21T11:03:36.624Z,43
2018-09-21T11:04:38.671Z,43
2018-09-21T11:05:40.730Z,43
2018-09-21T11:06:42.785Z,43
2018-09-21T11:07:44.821Z,43
2018-09-21T11:08:46.869Z,44
2018-09-21T11:09:49.593Z,44
2018-09-21T11:10:51.918Z,44
2018-09-21T11:11:53.969Z,44
2018-09-21T11:12:56.066Z,44
2018-09-21T11:13:58.101Z,44
2018-09-21T11:15:00.444Z,44
2018-09-21T11:16:02.502Z,44
2018-09-21T11:17:04.924Z,44
2018-09-21T11:18:06.967Z,44
2018-09-21T11:19:09.298Z,44
2018-09-21T11:20:12.003Z,44
2018-09-21T11:21:14.055Z,44
2018-09-21T11:22:16.412Z,44
2018-09-21T11:23:18.446Z,44
2018-09-21T11:24:20.845Z,44
2018-09-21T11:25:22.890Z,45
2018-09-21T11:26:24.942Z,45
2018-09-21T11:27:27.306Z,45
2018-09-21T11:28:29.364Z,45
2018-09-21T11:29:31.448Z,45
2018-09-21T11:30:33.501Z,45
2018-09-21T11:31:35.534Z,45
2018-09-21T11:32:37.612Z,45
2018-09-21T11:33:39.651Z,45
2018-09-21T11:34:42.115Z,45
2018-09-21T11:35:44.168Z,45
2018-09-21T11:36:46.255Z,45
2018-09-21T11:37:48.302Z,45
2018-09-21T11:38:50.340Z,45
2018-09-21T11:39:52.396Z,45
2018-09-21T11:40:54.447Z,45
2018-09-21T11:41:56.519Z,45
2018-09-21T11:42:58.568Z,45
2018-09-21T11:44:00.607Z,45
2018-09-21T11:45:02.664Z,45
2018-09-21T11:46:04.743Z,45
2018-09-21T11:47:07.282Z,45
2018-09-21T11:48:09.243Z,45
2018-09-21T11:49:11.295Z,44
2018-09-21T11:50:13.718Z,45
2018-09-21T11:51:15.762Z,45
2018-09-21T11:52:17.813Z,45
2018-09-21T11:53:19.857Z,45
2018-09-21T11:54:22.190Z,45
2018-09-21T11:55:24.238Z,45
2018-09-21T11:56:26.334Z,45
2018-09-21T11:57:28.383Z,46
2018-09-21T11:58:30.436Z,46
2018-09-21T11:59:32.479Z,47
2018-09-21T12:00:34.532Z,48
2018-09-21T12:01:36.571Z,48
2018-09-21T12:02:38.610Z,49
2018-09-21T12:03:40.650Z,49
2018-09-21T12:04:42.687Z,49
2018-09-21T12:05:44.742Z,50
2018-09-21T12:06:46.786Z,50
2018-09-21T12:07:48.825Z,53
2018-09-21T12:08:50.872Z,57
2018-09-21T12:09:53.192Z,62
2018-09-21T12:10:55.657Z,68
2018-09-21T12:11:57.698Z,73
2018-09-21T12:12:59.749Z,77
2018-09-21T12:14:02.167Z,81
2018-09-21T12:15:04.218Z,83
2018-09-21T12:16:06.786Z,86
2018-09-21T12:17:09.800Z,89
2018-09-21T12:18:11.742Z,88
2018-09-21T12:19:14.180Z,90
2018-09-21T12:20:16.219Z,91
2018-09-21T12:21:18.259Z,92
2018-09-21T12:22:20.364Z,92
2018-09-21T12:23:22.410Z,92
2018-09-21T12:24:24.457Z,93
2018-09-21T12:25:27.191Z,94
2018-09-21T12:26:29.224Z,95
2018-09-21T12:27:31.265Z,96
2018-09-21T12:28:33.352Z,96
2018-09-21T12:29:35.783Z,96
2018-09-21T12:30:38.173Z,96
2018-09-21T12:31:40.505Z,96
2018-09-21T12:32:42.546Z,96
2018-09-21T12:33:44.927Z,97
2018-09-21T12:34:47.261Z,97
2018-09-21T12:35:49.694Z,98
2018-09-21T12:36:52.368Z,97
2018-09-21T12:37:54.721Z,96
2018-09-21T12:38:57.186Z,97
2018-09-21T12:39:59.234Z,97
2018-09-21T12:41:01.286Z,97
2018-09-21T12:42:03.315Z,98
2018-09-21T12:43:05.401Z,97
2018-09-21T12:44:07.391Z,98
2018-09-21T12:45:09.463Z,98
2018-09-21T12:46:11.483Z,98
2018-09-21T12:47:13.533Z,97
2018-09-21T12:48:15.891Z,97
2018-09-21T12:49:17.917Z,96
2018-09-21T12:50:20.948Z,97
2018-09-21T12:51:23.326Z,99
2018-09-21T12:52:25.411Z,98
2018-09-21T12:53:27.450Z,98
2018-09-21T12:54:29.491Z,100
2018-09-21T12:55:31.530Z,100
2018-09-21T12:56:33.908Z,100
2018-09-21T12:57:36.639Z,100
2018-09-21T12:58:38.747Z,100
2018-09-21T12:59:40.730Z,99
2018-09-21T13:00:42.768Z,100
2018-09-21T13:01:44.826Z,99
2018-09-21T13:02:47.016Z,100
2018-09-21T13:03:48.897Z,100
2018-09-21T13:04:51.069Z,100
2018-09-21T13:05:53.052Z,100
2018-09-21T13:06:55.090Z,100
2018-09-21T13:07:57.171Z,100
2018-09-21T13:08:59.206Z,100
2018-09-21T13:10:01.251Z,100
2018-09-21T13:11:03.846Z,100
2018-09-21T13:12:05.887Z,100
2018-09-21T13:13:07.995Z,100
2018-09-21T13:14:10.409Z,100
2018-09-21T13:15:12.444Z,100
2018-09-21T13:16:14.607Z,100
2018-09-21T13:17:16.674Z,100
2018-09-21T13:18:18.697Z,100
2018-09-21T13:19:20.740Z,100
2018-09-21T13:20:22.766Z,100
2018-09-21T13:21:24.899Z,100
2018-09-21T13:22:27.028Z,100
2018-09-21T13:23:29.070Z,100
2018-09-21T13:24:31.085Z,100
2018-09-21T13:25:33.427Z,100
2018-09-21T13:26:35.849Z,100
2018-09-21T13:27:38.178Z,100
2018-09-21T13:28:40.242Z,100
2018-09-21T13:29:42.863Z,100
2018-09-21T13:30:44.895Z,100
2018-09-21T13:31:47.029Z,100
2018-09-21T13:32:49.071Z,100
2018-09-21T13:33:51.136Z,100
2018-09-21T13:34:53.448Z,100
2018-09-21T13:35:55.501Z,100
2018-09-21T13:36:57.530Z,100
2018-09-21T13:37:59.844Z,100
2018-09-21T13:39:02.162Z,100
2018-09-21T13:40:04.193Z,100
2018-09-21T13:41:06.619Z,100
2018-09-21T13:42:08.662Z,100
2018-09-21T13:43:10.700Z,100
2018-09-21T13:44:12.726Z,100
2018-09-21T13:45:14.765Z,100
2018-09-21T13:46:17.180Z,100
2018-09-21T13:47:19.598Z,100
2018-09-21T13:48:21.916Z,100
2018-09-21T13:49:23.944Z,100
2018-09-21T13:50:25.971Z,100
2018-09-21T13:51:27.998Z,100
2018-09-21T13:52:30.039Z,100
2018-09-21T13:53:32.060Z,100
2018-09-21T13:54:34.101Z,100
2018-09-21T13:55:36.417Z,100
2018-09-21T13:56:38.445Z,100
2018-09-21T13:57:40.485Z,100
2018-09-21T13:58:42.837Z,100
2018-09-21T13:59:44.865Z,100
2018-09-21T14:00:46.902Z,100
2018-09-21T14:01:49.320Z,100
2018-09-21T14:02:51.356Z,100
2018-09-21T14:03:53.391Z,100
2018-09-21T14:04:55.427Z,100
2018-09-21T14:05:57.471Z,100
2018-09-21T14:06:59.496Z,100
2018-09-21T14:08:01.527Z,100
2018-09-21T14:09:03.576Z,100
2018-09-21T14:10:05.604Z,100
2018-09-21T14:11:07.631Z,100
2018-09-21T14:12:10.059Z,100
2018-09-21T14:13:12.092Z,100
2018-09-21T14:14:14.430Z,100
2018-09-21T14:15:16.757Z,100
2018-09-21T14:16:18.854Z,100
2018-09-21T14:17:20.928Z,100
2018-09-21T14:18:22.969Z,100
2018-09-21T14:19:25.000Z,100
2018-09-21T14:20:27.036Z,100
2018-09-21T14:21:29.616Z,100
2018-09-21T14:22:32.624Z,100
2018-09-21T14:23:36.624Z,100
2018-09-21T14:24:40.397Z,100
2018-09-21T14:25:43.170Z,100
2018-09-21T14:26:46.835Z,100
2018-09-21T14:27:51.073Z,100
2018-09-21T14:28:54.333Z,100
2018-09-21T14:29:57.178Z,100
2018-09-21T14:31:00.713Z,100
2018-09-21T14:32:03.585Z,100
2018-09-21T14:33:06.692Z,100
2018-09-21T14:34:09.544Z,100
2018-09-21T14:35:12.412Z,100
2018-09-21T14:36:14.705Z,100
2018-09-21T14:37:16.733Z,100
2018-09-21T14:38:18.762Z,100
2018-09-21T14:39:21.129Z,100
2018-09-21T14:40:23.161Z,100
2018-09-21T14:41:25.480Z,100
2018-09-21T14:42:27.523Z,100